Aviation Digital Data Service (ADDS)

Output produced by METARs form (2347 UTC 24 April 2019)
found at http://www.aviationweather.gov/metar/data/
 
METAR text: RJFM 242323Z 05004KT 320V070 7000 FEW005 BKN008 BKN010 21/19 Q1005 RMK 1ST005 5ST008 6ST010 A2968
Conditions at: RJFM (MIYAZAKI AIRPORT, JP) observed 2323 UTC 24 April 2019
Temperature: 21.0°C (70°F)
Dewpoint: 19.0°C (66°F) [RH = 88%]
Pressure (altimeter): 29.68 inches Hg (1005.0 mb)
Winds: from the NE (50 degrees) at 5 MPH (4 knots; 2.1 m/s)
Visibility: 4 miles ( 7 km)
Ceiling: 800 feet AGL
Clouds: few clouds at 500 feet AGL
broken clouds at 800 feet AGL
broken clouds at 1000 feet AGL
Weather: no significant weather observed at this time

METAR text: RJFM 242300Z VRB03KT 5000 BR FEW004 BKN006 BKN100 21/20 Q1005
Conditions at: RJFM (MIYAZAKI AIRPORT, JP) observed 2300 UTC 24 April 2019
Temperature: 21.0°C (70°F)
Dewpoint: 20.0°C (68°F) [RH = 94%]
Pressure (altimeter): 29.68 inches Hg (1005.0 mb)
Winds: variable direction winds at 3 MPH (3 knots; 1.5 m/s)
Visibility: 3 miles ( 5 km)
Ceiling: 600 feet AGL
Clouds: few clouds at 400 feet AGL
broken clouds at 600 feet AGL
broken clouds at 10000 feet AGL
Weather: BR  (mist)

METAR text: RJFM 242229Z 02003KT 5000 BR FEW003 BKN006 BKN120 20/20 Q1004 RMK 1ST003 5ST006 7AC120 A2967
Conditions at: RJFM (MIYAZAKI AIRPORT, JP) observed 2229 UTC 24 April 2019
Temperature: 20.0°C (68°F)
Dewpoint: 20.0°C (68°F) [RH = 100%]
Pressure (altimeter): 29.65 inches Hg (1004.0 mb)
Winds: from the NNE (20 degrees) at 3 MPH (3 knots; 1.5 m/s)
Visibility: 3 miles ( 5 km)
Ceiling: 600 feet AGL
Clouds: few clouds at 300 feet AGL
broken clouds at 600 feet AGL
broken clouds at 12000 feet AGL
Weather: BR  (mist)

METAR text: RJFM 242200Z 01002KT 4500 -SHRA BR FEW001 SCT003 BKN005 20/20 Q1005
Conditions at: RJFM (MIYAZAKI AIRPORT, JP) observed 2200 UTC 24 April 2019
Temperature: 20.0°C (68°F)
Dewpoint: 20.0°C (68°F) [RH = 100%]
Pressure (altimeter): 29.68 inches Hg (1005.0 mb)
Winds: from the N (10 degrees) at 2 MPH (2 knots; 1.0 m/s)
Visibility: 2.80 miles (4.51 km)
Ceiling: 500 feet AGL
Clouds: few clouds at 100 feet AGL
scattered clouds at 300 feet AGL
broken clouds at 500 feet AGL
Weather: -SHRA BR  (light rain showers, mist)

METAR text: RJFM 242140Z VRB02KT 4000 -SHRA BR FEW002 SCT003 BKN006 20/20 Q1005 RMK 1ST002 3ST003 6ST006 A2968
Conditions at: RJFM (MIYAZAKI AIRPORT, JP) observed 2140 UTC 24 April 2019
Temperature: 20.0°C (68°F)
Dewpoint: 20.0°C (68°F) [RH = 100%]
Pressure (altimeter): 29.68 inches Hg (1005.0 mb)
Winds: variable direction winds at 2 MPH (2 knots; 1.0 m/s)
Visibility: 2.49 miles (4.01 km)
Ceiling: 600 feet AGL
Clouds: few clouds at 200 feet AGL
scattered clouds at 300 feet AGL
broken clouds at 600 feet AGL
Weather: -SHRA BR  (light rain showers, mist)

METAR text: RJFM 242110Z 35004KT 3500 -SHRA BR FEW003 SCT025 BKN060 20/20 Q1004 RMK 1ST003 4CU025 5SC060 A2967
Conditions at: RJFM (MIYAZAKI AIRPORT, JP) observed 2110 UTC 24 April 2019
Temperature: 20.0°C (68°F)
Dewpoint: 20.0°C (68°F) [RH = 100%]
Pressure (altimeter): 29.65 inches Hg (1004.0 mb)
Winds: from the N (350 degrees) at 5 MPH (4 knots; 2.1 m/s)
Visibility: 2.17 miles (3.49 km)
Ceiling: 6000 feet AGL
Clouds: few clouds at 300 feet AGL
scattered clouds at 2500 feet AGL
broken clouds at 6000 feet AGL
Weather: -SHRA BR  (light rain showers, mist)

METAR text: RJFM 241200Z 24005KT 190V300 9999 FEW015 23/19 Q1007
Conditions at: RJFM (MIYAZAKI AIRPORT, JP) observed 1200 UTC 24 April 2019
Temperature: 23.0°C (73°F)
Dewpoint: 19.0°C (66°F) [RH = 78%]
Pressure (altimeter): 29.73 inches Hg (1007.0 mb)
Winds: from the WSW (240 degrees) at 6 MPH (5 knots; 2.6 m/s)
Visibility: 6 or more miles (10+ km)
Ceiling: at least 12,000 feet AGL
Clouds: few clouds at 1500 feet AGL
Weather: no significant weather observed at this time

METAR text: RJFM 241100Z 27006KT 9999 FEW015 23/19 Q1006
Conditions at: RJFM (MIYAZAKI AIRPORT, JP) observed 1100 UTC 24 April 2019
Temperature: 23.0°C (73°F)
Dewpoint: 19.0°C (66°F) [RH = 78%]
Pressure (altimeter): 29.70 inches Hg (1006.0 mb)
Winds: from the W (270 degrees) at 7 MPH (6 knots; 3.1 m/s)
Visibility: 6 or more miles (10+ km)
Ceiling: at least 12,000 feet AGL
Clouds: few clouds at 1500 feet AGL
Weather: no significant weather observed at this time

METAR text: RJFM 241000Z 25007KT 9999 FEW015 SCT160 24/19 Q1006
Conditions at: RJFM (MIYAZAKI AIRPORT, JP) observed 1000 UTC 24 April 2019
Temperature: 24.0°C (75°F)
Dewpoint: 19.0°C (66°F) [RH = 74%]
Pressure (altimeter): 29.70 inches Hg (1006.0 mb)
Winds: from the WSW (250 degrees) at 8 MPH (7 knots; 3.6 m/s)
Visibility: 6 or more miles (10+ km)
Ceiling: at least 12,000 feet AGL
Clouds: few clouds at 1500 feet AGL
scattered clouds at 16000 feet AGL
Weather: no significant weather observed at this time

METAR text: RJFM 240900Z 29012KT 9999 FEW015 SCT160 BKN170 25/19 Q1006
Conditions at: RJFM (MIYAZAKI AIRPORT, JP) observed 0900 UTC 24 April 2019
Temperature: 25.0°C (77°F)
Dewpoint: 19.0°C (66°F) [RH = 69%]
Pressure (altimeter): 29.70 inches Hg (1006.0 mb)
Winds: from the WNW (290 degrees) at 14 MPH (12 knots; 6.2 m/s)
Visibility: 6 or more miles (10+ km)
Ceiling: 17000 feet AGL
Clouds: few clouds at 1500 feet AGL
scattered clouds at 16000 feet AGL
broken clouds at 17000 feet AGL
Weather: no significant weather observed at this time

METAR text: RJFM 240800Z 27012KT 9999 FEW015 SCT070 BKN170 26/20 Q1006
Conditions at: RJFM (MIYAZAKI AIRPORT, JP) observed 0800 UTC 24 April 2019
Temperature: 26.0°C (79°F)
Dewpoint: 20.0°C (68°F) [RH = 70%]
Pressure (altimeter): 29.70 inches Hg (1006.0 mb)
Winds: from the W (270 degrees) at 14 MPH (12 knots; 6.2 m/s)
Visibility: 6 or more miles (10+ km)
Ceiling: 17000 feet AGL
Clouds: few clouds at 1500 feet AGL
scattered clouds at 7000 feet AGL
broken clouds at 17000 feet AGL
Weather: no significant weather observed at this time

METAR text: RJFM 240703Z 26014KT 180V350 9999 -RA FEW015 SCT060 BKN150 25/20 Q1006 RMK 1CU015 3SC060 5AC150 A2972
Conditions at: RJFM (MIYAZAKI AIRPORT, JP) observed 0703 UTC 24 April 2019
Temperature: 25.0°C (77°F)
Dewpoint: 20.0°C (68°F) [RH = 74%]
Pressure (altimeter): 29.70 inches Hg (1006.0 mb)
Winds: from the W (260 degrees) at 16 MPH (14 knots; 7.2 m/s)
Visibility: 6 or more miles (10+ km)
Ceiling: 15000 feet AGL
Clouds: few clouds at 1500 feet AGL
scattered clouds at 6000 feet AGL
broken clouds at 15000 feet AGL
Weather: -RA  (light rain)

METAR text: RJFM 240700Z 26004KT 180V350 9999 -RA FEW015 SCT060 BKN150 25/20 Q1006
Conditions at: RJFM (MIYAZAKI AIRPORT, JP) observed 0700 UTC 24 April 2019
Temperature: 25.0°C (77°F)
Dewpoint: 20.0°C (68°F) [RH = 74%]
Pressure (altimeter): 29.70 inches Hg (1006.0 mb)
Winds: from the W (260 degrees) at 5 MPH (4 knots; 2.1 m/s)
Visibility: 6 or more miles (10+ km)
Ceiling: 15000 feet AGL
Clouds: few clouds at 1500 feet AGL
scattered clouds at 6000 feet AGL
broken clouds at 15000 feet AGL
Weather: -RA  (light rain)

METAR text: RJFM 240629Z 13006KT 100V180 7000 FEW010 SCT040 BKN/// 23/20 Q1006 RMK 1ST010 3CU040 A2971
Conditions at: RJFM (MIYAZAKI AIRPORT, JP) observed 0629 UTC 24 April 2019
Temperature: 23.0°C (73°F)
Dewpoint: 20.0°C (68°F) [RH = 83%]
Pressure (altimeter): 29.70 inches Hg (1006.0 mb)
Winds: from the SE (130 degrees) at 7 MPH (6 knots; 3.1 m/s)
Visibility: 4 miles ( 7 km)
Ceiling: at least 12,000 feet AGL
Clouds: few clouds at 1000 feet AGL
scattered clouds at 4000 feet AGL
Weather: no significant weather observed at this time

METAR text: RJFM 240615Z 19011KT 150V260 7000 FEW010 SCT040 BKN/// 26/20 Q1006 RMK 1ST010 3CU040 A2972
Conditions at: RJFM (MIYAZAKI AIRPORT, JP) observed 0615 UTC 24 April 2019
Temperature: 26.0°C (79°F)
Dewpoint: 20.0°C (68°F) [RH = 70%]
Pressure (altimeter): 29.70 inches Hg (1006.0 mb)
Winds: from the S (190 degrees) at 13 MPH (11 knots; 5.7 m/s)
Visibility: 4 miles ( 7 km)
Ceiling: at least 12,000 feet AGL
Clouds: few clouds at 1000 feet AGL
scattered clouds at 4000 feet AGL
Weather: no significant weather observed at this time

METAR text: RJFM 240600Z 25015KT 7000 FEW010 SCT040 BKN/// 26/20 Q1006
Conditions at: RJFM (MIYAZAKI AIRPORT, JP) observed 0600 UTC 24 April 2019
Temperature: 26.0°C (79°F)
Dewpoint: 20.0°C (68°F) [RH = 70%]
Pressure (altimeter): 29.70 inches Hg (1006.0 mb)
Winds: from the WSW (250 degrees) at 17 MPH (15 knots; 7.7 m/s)
Visibility: 4 miles ( 7 km)
Ceiling: at least 12,000 feet AGL
Clouds: few clouds at 1000 feet AGL
scattered clouds at 4000 feet AGL
Weather: no significant weather observed at this time

METAR text: RJFM 240522Z 27015KT 6000 FEW010 SCT030 BKN080 26/21 Q1007 RMK 1ST010 3CU030 5AC080 A2974
Conditions at: RJFM (MIYAZAKI AIRPORT, JP) observed 0522 UTC 24 April 2019
Temperature: 26.0°C (79°F)
Dewpoint: 21.0°C (70°F) [RH = 74%]
Pressure (altimeter): 29.73 inches Hg (1007.0 mb)
Winds: from the W (270 degrees) at 17 MPH (15 knots; 7.7 m/s)
Visibility: 4 miles ( 6 km)
Ceiling: 8000 feet AGL
Clouds: few clouds at 1000 feet AGL
scattered clouds at 3000 feet AGL
broken clouds at 8000 feet AGL
Weather: no significant weather observed at this time

METAR text: RJFM 240500Z VRB05KT 9000 FEW010 SCT030 BKN080 26/22 Q1007
Conditions at: RJFM (MIYAZAKI AIRPORT, JP) observed 0500 UTC 24 April 2019
Temperature: 26.0°C (79°F)
Dewpoint: 22.0°C (72°F) [RH = 79%]
Pressure (altimeter): 29.73 inches Hg (1007.0 mb)
Winds: variable direction winds at 6 MPH (5 knots; 2.6 m/s)
Visibility: 6 miles ( 9 km)
Ceiling: 8000 feet AGL
Clouds: few clouds at 1000 feet AGL
scattered clouds at 3000 feet AGL
broken clouds at 8000 feet AGL
Weather: no significant weather observed at this time

METAR text: RJFM 240400Z 28006KT 250V320 9999 FEW005 SCT010 BKN050 24/22 Q1007
Conditions at: RJFM (MIYAZAKI AIRPORT, JP) observed 0400 UTC 24 April 2019
Temperature: 24.0°C (75°F)
Dewpoint: 22.0°C (72°F) [RH = 89%]
Pressure (altimeter): 29.73 inches Hg (1007.0 mb)
Winds: from the W (280 degrees) at 7 MPH (6 knots; 3.1 m/s)
Visibility: 6 or more miles (10+ km)
Ceiling: 5000 feet AGL
Clouds: few clouds at 500 feet AGL
scattered clouds at 1000 feet AGL
broken clouds at 5000 feet AGL
Weather: no significant weather observed at this time

METAR text: RJFM 240300Z VRB01KT 9999 FEW005 SCT008 BKN030 23/21 Q1008
Conditions at: RJFM (MIYAZAKI AIRPORT, JP) observed 0300 UTC 24 April 2019
Temperature: 23.0°C (73°F)
Dewpoint: 21.0°C (70°F) [RH = 89%]
Pressure (altimeter): 29.76 inches Hg (1008.0 mb)
Winds: variable direction winds at 1 MPH (1 knots; 0.5 m/s)
Visibility: 6 or more miles (10+ km)
Ceiling: 3000 feet AGL
Clouds: few clouds at 500 feet AGL
scattered clouds at 800 feet AGL
broken clouds at 3000 feet AGL
Weather: no significant weather observed at this time

METAR text: RJFM 240200Z 31003KT 260V350 7000 -SHRA FEW002 SCT007 BKN020 21/20 Q1009
Conditions at: RJFM (MIYAZAKI AIRPORT, JP) observed 0200 UTC 24 April 2019
Temperature: 21.0°C (70°F)
Dewpoint: 20.0°C (68°F) [RH = 94%]
Pressure (altimeter): 29.79 inches Hg (1009.0 mb)
Winds: from the NW (310 degrees) at 3 MPH (3 knots; 1.5 m/s)
Visibility: 4 miles ( 7 km)
Ceiling: 2000 feet AGL
Clouds: few clouds at 200 feet AGL
scattered clouds at 700 feet AGL
broken clouds at 2000 feet AGL
Weather: -SHRA  (light rain showers)

METAR text: RJFM 240140Z 28009KT 2000 R27/0750VP1800D +SHRA BR FEW002 SCT003 BKN006 21/20 Q1009 RMK 1ST002 4ST003 7ST006 A2982 RI++
Conditions at: RJFM (MIYAZAKI AIRPORT, JP) observed 0140 UTC 24 April 2019
Temperature: 21.0°C (70°F)
Dewpoint: 20.0°C (68°F) [RH = 94%]
Pressure (altimeter): 29.79 inches Hg (1009.0 mb)
Winds: from the W (280 degrees) at 10 MPH (9 knots; 4.6 m/s)
Visibility: 1.24 miles (2.00 km)
Ceiling: 600 feet AGL
Clouds: few clouds at 200 feet AGL
scattered clouds at 300 feet AGL
broken clouds at 600 feet AGL
Weather: +SHRA BR  (heavy rain showers, mist)

METAR text: RJFM 240136Z 27012KT 1500 R27/P1800N +SHRA BR FEW002 SCT004 BKN006 21/20 Q1009 RMK 1ST002 4ST004 7ST006 A2982 RI++
Conditions at: RJFM (MIYAZAKI AIRPORT, JP) observed 0136 UTC 24 April 2019
Temperature: 21.0°C (70°F)
Dewpoint: 20.0°C (68°F) [RH = 94%]
Pressure (altimeter): 29.79 inches Hg (1009.0 mb)
Winds: from the W (270 degrees) at 14 MPH (12 knots; 6.2 m/s)
Visibility: 0.93 miles (1.50 km)
Ceiling: 600 feet AGL
Clouds: few clouds at 200 feet AGL
scattered clouds at 400 feet AGL
broken clouds at 600 feet AGL
Weather: +SHRA BR  (heavy rain showers, mist)

METAR text: RJFM 240100Z 01003KT 350V050 5000 -SHRA BR FEW002 SCT004 BKN007 21/20 Q1009
Conditions at: RJFM (MIYAZAKI AIRPORT, JP) observed 0100 UTC 24 April 2019
Temperature: 21.0°C (70°F)
Dewpoint: 20.0°C (68°F) [RH = 94%]
Pressure (altimeter): 29.79 inches Hg (1009.0 mb)
Winds: from the N (10 degrees) at 3 MPH (3 knots; 1.5 m/s)
Visibility: 3 miles ( 5 km)
Ceiling: 700 feet AGL
Clouds: few clouds at 200 feet AGL
scattered clouds at 400 feet AGL
broken clouds at 700 feet AGL
Weather: -SHRA BR  (light rain showers, mist)

METAR text: RJFM 240023Z VRB01KT 4500 -SHRA BR FEW001 SCT003 BKN008 20/20 Q1009 RMK 1ST001 4ST003 5ST008 A2982
Conditions at: RJFM (MIYAZAKI AIRPORT, JP) observed 0023 UTC 24 April 2019
Temperature: 20.0°C (68°F)
Dewpoint: 20.0°C (68°F) [RH = 100%]
Pressure (altimeter): 29.79 inches Hg (1009.0 mb)
Winds: variable direction winds at 1 MPH (1 knots; 0.5 m/s)
Visibility: 2.80 miles (4.51 km)
Ceiling: 800 feet AGL
Clouds: few clouds at 100 feet AGL
scattered clouds at 300 feet AGL
broken clouds at 800 feet AGL
Weather: -SHRA BR  (light rain showers, mist)

METAR text: RJFM 240000Z 29003KT 250V320 4500 -SHRA BR FEW001 BKN003 BKN007 20/19 Q1009
Conditions at: RJFM (MIYAZAKI AIRPORT, JP) observed 0000 UTC 24 April 2019
Temperature: 20.0°C (68°F)
Dewpoint: 19.0°C (66°F) [RH = 94%]
Pressure (altimeter): 29.79 inches Hg (1009.0 mb)
Winds: from the WNW (290 degrees) at 3 MPH (3 knots; 1.5 m/s)
Visibility: 2.80 miles (4.51 km)
Ceiling: 300 feet AGL
Clouds: few clouds at 100 feet AGL
broken clouds at 300 feet AGL
broken clouds at 700 feet AGL
Weather: -SHRA BR  (light rain showers, mist)

METAR text: RJFM 232341Z VRB02KT 4500 -SHRA BR FEW001 SCT003 BKN007 20/19 Q1009 RMK 1ST001 4ST003 6ST007 A2982
Conditions at: RJFM (MIYAZAKI AIRPORT, JP) observed 2341 UTC 23 April 2019
Temperature: 20.0°C (68°F)
Dewpoint: 19.0°C (66°F) [RH = 94%]
Pressure (altimeter): 29.79 inches Hg (1009.0 mb)
Winds: variable direction winds at 2 MPH (2 knots; 1.0 m/s)
Visibility: 2.80 miles (4.51 km)
Ceiling: 700 feet AGL
Clouds: few clouds at 100 feet AGL
scattered clouds at 300 feet AGL
broken clouds at 700 feet AGL
Weather: -SHRA BR  (light rain showers, mist)

METAR text: RJFM 232300Z 29004KT 250V330 4500 -SHRA BR FEW001 BKN003 BKN009 19/19 Q1010
Conditions at: RJFM (MIYAZAKI AIRPORT, JP) observed 2300 UTC 23 April 2019
Temperature: 19.0°C (66°F)
Dewpoint: 19.0°C (66°F) [RH = 100%]
Pressure (altimeter): 29.82 inches Hg (1010.0 mb)
Winds: from the WNW (290 degrees) at 5 MPH (4 knots; 2.1 m/s)
Visibility: 2.80 miles (4.51 km)
Ceiling: 300 feet AGL
Clouds: few clouds at 100 feet AGL
broken clouds at 300 feet AGL
broken clouds at 900 feet AGL
Weather: -SHRA BR  (light rain showers, mist)

METAR text: RJFM 232236Z 29003KT 3500 -SHRA BR FEW001 BKN003 BKN008 19/19 Q1009 RMK 1ST001 5ST003 6ST008 A2982
Conditions at: RJFM (MIYAZAKI AIRPORT, JP) observed 2236 UTC 23 April 2019
Temperature: 19.0°C (66°F)
Dewpoint: 19.0°C (66°F) [RH = 100%]
Pressure (altimeter): 29.79 inches Hg (1009.0 mb)
Winds: from the WNW (290 degrees) at 3 MPH (3 knots; 1.5 m/s)
Visibility: 2.17 miles (3.49 km)
Ceiling: 300 feet AGL
Clouds: few clouds at 100 feet AGL
broken clouds at 300 feet AGL
broken clouds at 800 feet AGL
Weather: -SHRA BR  (light rain showers, mist)

METAR text: RJFM 232200Z 26005KT 4500 -SHRA BR FEW001 SCT003 BKN007 19/19 Q1010
Conditions at: RJFM (MIYAZAKI AIRPORT, JP) observed 2200 UTC 23 April 2019
Temperature: 19.0°C (66°F)
Dewpoint: 19.0°C (66°F) [RH = 100%]
Pressure (altimeter): 29.82 inches Hg (1010.0 mb)
Winds: from the W (260 degrees) at 6 MPH (5 knots; 2.6 m/s)
Visibility: 2.80 miles (4.51 km)
Ceiling: 700 feet AGL
Clouds: few clouds at 100 feet AGL
scattered clouds at 300 feet AGL
broken clouds at 700 feet AGL
Weather: -SHRA BR  (light rain showers, mist)

METAR text: RJFM 232124Z 23004KT 190V260 4500 -SHRA BR FEW002 SCT006 BKN008 19/19 Q1010 RMK 1ST002 3ST006 6ST008 A2983
Conditions at: RJFM (MIYAZAKI AIRPORT, JP) observed 2124 UTC 23 April 2019
Temperature: 19.0°C (66°F)
Dewpoint: 19.0°C (66°F) [RH = 100%]
Pressure (altimeter): 29.82 inches Hg (1010.0 mb)
Winds: from the SW (230 degrees) at 5 MPH (4 knots; 2.1 m/s)
Visibility: 2.80 miles (4.51 km)
Ceiling: 800 feet AGL
Clouds: few clouds at 200 feet AGL
scattered clouds at 600 feet AGL
broken clouds at 800 feet AGL
Weather: -SHRA BR  (light rain showers, mist)

METAR text: RJFM 232110Z 17011KT 4000 -SHRA BR FEW002 SCT006 BKN008 20/19 Q1010 RMK 1ST002 4ST006 6ST008 A2983
Conditions at: RJFM (MIYAZAKI AIRPORT, JP) observed 2110 UTC 23 April 2019
Temperature: 20.0°C (68°F)
Dewpoint: 19.0°C (66°F) [RH = 94%]
Pressure (altimeter): 29.82 inches Hg (1010.0 mb)
Winds: from the S (170 degrees) at 13 MPH (11 knots; 5.7 m/s)
Visibility: 2.49 miles (4.01 km)
Ceiling: 800 feet AGL
Clouds: few clouds at 200 feet AGL
scattered clouds at 600 feet AGL
broken clouds at 800 feet AGL
Weather: -SHRA BR  (light rain showers, mist)

METAR text: RJFM 231200Z 16010KT 9999 -RA FEW015 SCT030 BKN050 20/16 Q1014
Conditions at: RJFM (MIYAZAKI AIRPORT, JP) observed 1200 UTC 23 April 2019
Temperature: 20.0°C (68°F)
Dewpoint: 16.0°C (61°F) [RH = 78%]
Pressure (altimeter): 29.94 inches Hg (1014.0 mb)
Winds: from the SSE (160 degrees) at 12 MPH (10 knots; 5.1 m/s)
Visibility: 6 or more miles (10+ km)
Ceiling: 5000 feet AGL
Clouds: few clouds at 1500 feet AGL
scattered clouds at 3000 feet AGL
broken clouds at 5000 feet AGL
Weather: -RA  (light rain)

Forecast for: RJFM (MIYAZAKI AIRPORT, JP)
Text: TAF RJFM 242314Z 2500/2606 11007KT 9999 FEW030
Forecast period: 0000 to 0700 UTC 25 April 2019
Forecast type: FROM: standard forecast or significant change
Winds: from the ESE (110 degrees) at 8 MPH (7 knots; 3.6 m/s)
Visibility: 6 or more miles 10+ km)
Ceiling: at least 12,000 feet AGL
Clouds: few clouds at 3000 feet AGL
Weather: no significant weather forecast for this period
Text: TEMPO 2500/2503 4000 BR FEW002 BKN006 BKN015
Forecast period: 0000 to 0300 UTC 25 April 2019
Forecast type: TEMPORARY: The following changes expected for less than half the time period
Visibility: 2.49 miles (4.01 km)
Ceiling: 600 feet AGL
Clouds: few clouds at 200 feet AGL
broken clouds at 600 feet AGL
broken clouds at 1500 feet AGL
Weather: BR  (mist)
Text: BECMG 2507/2509 27011KT
Forecast period: 0700 UTC 25 April 2019 to 0600 UTC 26 April 2019
Forecast type: BECOMING: Conditions expected to become as follows by 0900 UTC 25 April 2019
Winds: from the W (270 degrees) at 13 MPH (11 knots; 5.7 m/s)
Visibility: 6 or more miles 10+ km)
Ceiling: at least 12,000 feet AGL
Clouds: few clouds at 3000 feet AGL
Weather: no significant weather forecast for this period
Text: TEMPO 2603/2606 27020G30KT
Forecast period: 0300 to 0600 UTC 26 April 2019
Forecast type: TEMPORARY: The following changes expected for less than half the time period
Winds: from the W (270 degrees) at 23 MPH (20 knots; 10.3 m/s)
gusting to 34 MPH (30 knots; 15.4 m/s)
Visibility: missing
Ceiling: unknown
Clouds: missing
Weather: no significant weather forecast for this period